Time;durP1;ratioP1;P1;durP2;ratioP2;P2;SDS_P1;SDS_P2;PMS_P1;PMS_P2;Temp;Humidity;BMP_temperature;BMP_pressure;BME280_temperature;BME280_humidity;BME280_pressure;Samples;Min_cycle;Max_cycle;Signal;HPM_P1;HPM_P2
2022/10/29 00:02:18;;;;;;;;;;;;;;;21.39;32.14;99076.69;5038001;28;964;-80
2022/10/29 00:04:43;;;;;;;;;;;;;;;21.28;32.03;99076.75;5037843;28;1272;-80
2022/10/29 00:07:09;;;;;;;;;;;;;;;21.09;31.90;99071.69;5037798;28;899;-80
2022/10/29 00:09:34;;;;;;;;;;;;;;;21.27;31.48;99066.66;5038094;28;1972;-80
2022/10/29 00:15:34;;;;;;;;;;;;;;;21.05;32.07;99070.88;5074368;28;879;-80
2022/10/29 00:18:00;;;;;;;;;;;;;;;21.31;32.24;99061.81;5071553;28;1210;-80
2022/10/29 00:20:25;;;;;;;;;;;;;;;21.36;32.07;99063.38;5057624;28;841;-80
2022/10/29 00:22:53;;;;;;;;;;;;;;;21.66;31.27;99056.22;5053290;28;911;-80
2022/10/29 00:25:19;;;;;;;;;;;;;;;21.28;32.05;99056.94;4978767;28;1233;-80
2022/10/29 00:27:44;;;;;;;;;;;;;;;21.24;31.66;99056.19;4995233;28;1049;-80
2022/10/29 00:30:10;;;;;;;;;;;;;;;21.05;32.15;99053.91;4994480;28;1985;-80
2022/10/29 00:32:36;;;;;;;;;;;;;;;21.05;32.05;99048.25;4978581;28;896;-80
2022/10/29 00:35:01;;;;;;;;;;;;;;;21.05;32.34;99054.72;4978412;28;957;-80
2022/10/29 00:37:27;;;;;;;;;;;;;;;21.01;32.04;99048.28;4978630;28;1197;-80
2022/10/29 00:39:52;;;;;;;;;;;;;;;21.24;32.00;99044.88;4978445;28;1294;-80
2022/10/29 00:42:17;;;;;;;;;;;;;;;21.43;31.76;99045.53;4977660;28;1190;-80
2022/10/29 00:44:43;;;;;;;;;;;;;;;21.57;31.74;99046.19;4994719;28;882;-80
2022/10/29 00:47:18;;;;;;;;;;;;;;;21.13;31.82;99043.31;5001001;28;1136;-80
2022/10/29 00:49:48;;;;;;;;;;;;;;;21.19;31.81;99034.00;4981807;28;1906;-80
2022/10/29 00:52:14;;;;;;;;;;;;;;;21.28;31.50;99037.13;4997899;28;846;-80
2022/10/29 00:54:40;;;;;;;;;;;;;;;21.07;32.03;99038.13;4998170;28;1232;-80
2022/10/29 00:57:12;;;;;;;;;;;;;;;21.09;31.87;99040.53;5047647;28;933;-80
2022/10/29 00:59:37;;;;;;;;;;;;;;;21.20;32.32;99044.09;5073879;28;888;-80
2022/10/29 01:02:03;;;;;;;;;;;;;;;21.46;31.68;99034.16;5073729;28;814;-80
2022/10/29 01:04:28;;;;;;;;;;;;;;;21.37;31.67;99033.84;5057193;28;1181;-80
2022/10/29 01:06:54;;;;;;;;;;;;;;;21.24;31.57;99033.53;5057500;28;810;-80
2022/10/29 01:09:19;;;;;;;;;;;;;;;21.11;31.80;99029.59;5073885;28;1902;-80
2022/10/29 01:11:56;;;;;;;;;;;;;;;21.16;31.41;99031.19;5077213;28;859;-80
2022/10/29 01:14:31;;;;;;;;;;;;;;;21.11;31.90;99023.94;5057121;28;1113;-80
2022/10/29 01:16:59;;;;;;;;;;;;;;;21.46;31.47;99022.03;5050142;28;1005;-80
2022/10/29 01:19:37;;;;;;;;;;;;;;;21.66;31.30;99025.88;5037429;28;937;-80
2022/10/29 01:22:15;;;;;;;;;;;;;;;21.25;31.69;99018.16;5020643;28;783;-80
2022/10/29 01:24:59;;;;;;;;;;;;;;;21.31;31.61;99010.84;5020858;28;1182;-80
2022/10/29 01:27:30;;;;;;;;;;;;;;;21.29;31.60;99016.06;5037231;28;823;-80
2022/10/29 01:30:00;;;;;;;;;;;;;;;21.41;31.33;99025.34;5020276;28;1910;-80
2022/10/29 01:32:38;;;;;;;;;;;;;;;21.18;31.43;99017.41;5020769;28;1177;-80
2022/10/29 01:38:40;;;;;;;;;;;;;;;21.43;31.76;99005.88;5036927;28;618;-80
2022/10/29 01:41:11;;;;;;;;;;;;;;;21.08;32.21;99007.78;5020685;28;1366;-80
2022/10/29 01:43:37;;;;;;;;;;;;;;;21.20;31.65;99001.63;5020478;28;691;-80
2022/10/29 01:46:13;;;;;;;;;;;;;;;21.00;31.71;99000.59;5065224;28;950;-80
2022/10/29 01:48:40;;;;;;;;;;;;;;;21.20;31.42;98998.81;5041280;28;1221;-80
2022/10/29 01:51:11;;;;;;;;;;;;;;;21.41;32.18;98997.03;5041055;28;1914;-80
2022/10/29 01:53:36;;;;;;;;;;;;;;;21.49;31.70;98988.00;5041306;28;999;-79
2022/10/29 01:56:02;;;;;;;;;;;;;;;21.32;31.73;98984.16;5041176;28;1363;-80
2022/10/29 01:58:27;;;;;;;;;;;;;;;21.17;31.91;98984.66;5057773;28;872;-80
2022/10/29 02:01:15;;;;;;;;;;;;;;;21.19;31.53;98991.53;5041019;28;1126;-80
2022/10/29 02:03:44;;;;;;;;;;;;;;;21.12;31.54;98985.13;5057551;28;783;-80
2022/10/29 02:06:19;;;;;;;;;;;;;;;20.93;32.21;98983.66;5057622;28;1229;-80
2022/10/29 02:08:51;;;;;;;;;;;;;;;21.09;32.32;98975.47;5041513;28;1227;-80
2022/10/29 02:11:36;;;;;;;;;;;;;;;21.35;31.76;98981.69;5058294;28;1974;-80
2022/10/29 02:14:05;;;;;;;;;;;;;;;21.24;31.81;98988.25;5000319;28;1314;-80
2022/10/29 02:16:31;;;;;;;;;;;;;;;21.08;32.06;98982.31;4984214;28;979;-80
2022/10/29 02:18:57;;;;;;;;;;;;;;;21.07;31.93;98973.03;5000021;28;943;-80
2022/10/29 02:21:22;;;;;;;;;;;;;;;21.25;31.57;98970.03;4983501;28;1242;-80
2022/10/29 02:23:48;;;;;;;;;;;;;;;21.00;31.81;98977.97;5000568;28;787;-80
2022/10/29 02:26:13;;;;;;;;;;;;;;;21.10;31.76;98971.41;4999934;28;920;-80
2022/10/29 02:28:39;;;;;;;;;;;;;;;21.10;31.71;98977.06;4999989;28;784;-80
2022/10/29 02:31:04;;;;;;;;;;;;;;;21.19;31.54;98973.72;4967556;28;1918;-80
2022/10/29 02:33:30;;;;;;;;;;;;;;;21.44;31.69;98979.97;5016105;28;819;-80
2022/10/29 02:35:55;;;;;;;;;;;;;;;21.56;31.70;98973.00;4999732;28;763;-80
2022/10/29 02:38:21;;;;;;;;;;;;;;;21.38;31.83;98972.38;4999605;28;889;-80
2022/10/29 02:40:46;;;;;;;;;;;;;;;21.28;31.86;98966.34;5016384;28;807;-80
2022/10/29 02:43:12;;;;;;;;;;;;;;;20.98;32.53;98967.03;4983550;28;1241;-80
2022/10/29 02:45:37;;;;;;;;;;;;;;;21.10;31.92;98960.09;4999461;28;1136;-80
2022/10/29 02:48:03;;;;;;;;;;;;;;;21.17;31.90;98970.53;5015635;28;1158;-80
2022/10/29 02:50:28;;;;;;;;;;;;;;;20.94;32.10;98962.66;5025872;28;1914;-80
2022/10/29 02:52:53;;;;;;;;;;;;;;;21.41;31.92;98957.38;5056886;28;795;-80
2022/10/29 02:55:19;;;;;;;;;;;;;;;21.48;32.01;98963.75;5056477;28;1340;-80
2022/10/29 02:57:44;;;;;;;;;;;;;;;21.07;32.34;98952.41;5040249;28;1299;-80
2022/10/29 03:00:10;;;;;;;;;;;;;;;21.25;32.22;98957.91;5040056;28;1422;-80
2022/10/29 03:02:36;;;;;;;;;;;;;;;21.12;31.99;98957.63;5039957;28;865;-80
2022/10/29 03:05:01;;;;;;;;;;;;;;;21.24;31.65;98954.28;5039959;28;1232;-80
2022/10/29 03:07:27;;;;;;;;;;;;;;;21.09;32.06;98952.81;5038770;28;1237;-79
2022/10/29 03:09:52;;;;;;;;;;;;;;;20.98;32.43;98949.25;5038654;28;1914;-80
2022/10/29 03:12:18;;;;;;;;;;;;;;;20.91;32.33;98957.81;5022265;28;1141;-80
2022/10/29 03:14:43;;;;;;;;;;;;;;;20.95;32.52;98952.94;5038511;28;790;-80
2022/10/29 03:17:09;;;;;;;;;;;;;;;21.03;32.28;98945.97;5021892;28;1217;-80
2022/10/29 03:19:34;;;;;;;;;;;;;;;21.41;32.19;98946.06;5038360;28;1171;-80
2022/10/29 03:21:59;;;;;;;;;;;;;;;21.37;32.27;98950.94;5054826;28;790;-80
2022/10/29 03:24:25;;;;;;;;;;;;;;;21.45;31.86;98938.31;5038147;28;829;-80
2022/10/29 03:26:50;;;;;;;;;;;;;;;21.18;32.11;98943.81;5054791;28;811;-80
2022/10/29 03:29:16;;;;;;;;;;;;;;;21.30;32.04;98940.50;5038209;28;1906;-80
2022/10/29 03:31:41;;;;;;;;;;;;;;;21.11;32.03;98944.69;5021953;28;830;-80
2022/10/29 03:34:07;;;;;;;;;;;;;;;21.07;32.22;98950.38;5037515;28;1246;-80
2022/10/29 03:36:32;;;;;;;;;;;;;;;20.97;32.26;98947.66;5014993;28;811;-80
2022/10/29 03:38:57;;;;;;;;;;;;;;;20.93;32.37;98938.41;5012659;28;1074;-80
2022/10/29 03:41:23;;;;;;;;;;;;;;;21.04;31.99;98937.09;5018494;28;837;-80
2022/10/29 03:43:48;;;;;;;;;;;;;;;21.32;32.64;98932.38;5018828;28;1273;-80
2022/10/29 03:46:14;;;;;;;;;;;;;;;21.51;31.87;98933.81;5034131;28;754;-80
2022/10/29 03:48:39;;;;;;;;;;;;;;;21.41;31.83;98929.06;5016373;28;1355;-80
2022/10/29 03:51:05;;;;;;;;;;;;;;;21.38;31.80;98935.56;4996253;28;1903;-80
2022/10/29 03:53:30;;;;;;;;;;;;;;;21.23;31.71;98937.69;5013761;28;1530;-81
2022/10/29 03:55:56;;;;;;;;;;;;;;;21.10;31.89;98931.78;5031277;28;968;-80
2022/10/29 03:58:21;;;;;;;;;;;;;;;21.14;31.78;98938.22;5014660;28;1333;-80
2022/10/29 04:00:56;;;;;;;;;;;;;;;21.22;31.60;98939.72;5031072;28;860;-80
2022/10/29 04:03:22;;;;;;;;;;;;;;;21.24;31.66;98936.47;5011993;28;1119;-80
2022/10/29 04:05:47;;;;;;;;;;;;;;;21.00;32.29;98935.50;5011284;28;969;-80
2022/10/29 04:08:13;;;;;;;;;;;;;;;21.03;32.15;98943.94;5011758;28;1127;-80
2022/10/29 04:10:42;;;;;;;;;;;;;;;21.46;31.99;98925.78;5014006;28;1906;-80
2022/10/29 04:13:07;;;;;;;;;;;;;;;21.51;31.79;98934.59;5019394;28;1511;-80
2022/10/29 04:15:33;;;;;;;;;;;;;;;21.37;31.57;98929.09;5070751;28;775;-80
2022/10/29 04:17:58;;;;;;;;;;;;;;;21.27;31.65;98930.78;5054273;28;731;-80
2022/10/29 04:20:24;;;;;;;;;;;;;;;21.14;31.91;98932.56;5069760;28;1552;-80
2022/10/29 04:26:24;;;;;;;;;;;;;;;21.12;31.84;98940.66;5056369;28;648;-80
2022/10/29 04:28:49;;;;;;;;;;;;;;;21.07;32.11;98932.59;5051847;28;1536;-80
2022/10/29 04:31:15;;;;;;;;;;;;;;;21.02;32.08;98942.34;5066646;28;1926;-80
2022/10/29 04:33:40;;;;;;;;;;;;;;;21.22;32.18;98936.91;5068495;28;716;-80
2022/10/29 04:36:06;;;;;;;;;;;;;;;21.43;31.80;98932.28;5052047;28;1114;-80
2022/10/29 04:38:32;;;;;;;;;;;;;;;21.37;31.80;98933.97;5051209;28;1560;-80
2022/10/29 04:40:58;;;;;;;;;;;;;;;21.20;31.81;98938.56;5017676;28;1144;-80
2022/10/29 04:43:23;;;;;;;;;;;;;;;21.14;32.05;98943.88;5035611;28;735;-80
2022/10/29 04:45:52;;;;;;;;;;;;;;;21.10;32.05;98937.44;5038642;28;842;-80
2022/10/29 04:48:17;;;;;;;;;;;;;;;21.38;32.16;98938.41;5039143;28;1201;-80
2022/10/29 04:50:43;;;;;;;;;;;;;;;21.57;31.77;98938.56;5039303;28;1898;-81
2022/10/29 04:53:08;;;;;;;;;;;;;;;21.35;31.83;98936.38;5039410;28;1201;-80
2022/10/29 04:55:37;;;;;;;;;;;;;;;21.22;32.00;98938.94;5040622;28;758;-80
2022/10/29 04:58:03;;;;;;;;;;;;;;;20.97;31.98;98939.16;5039125;28;727;-80
2022/10/29 05:00:28;;;;;;;;;;;;;;;21.07;31.74;98941.09;5054625;28;1502;-80
2022/10/29 05:02:54;;;;;;;;;;;;;;;20.95;32.26;98941.63;5059828;28;731;-80
2022/10/29 05:05:19;;;;;;;;;;;;;;;21.14;31.77;98943.88;5059916;28;767;-80
2022/10/29 05:07:45;;;;;;;;;;;;;;;21.14;31.95;98948.72;5059014;28;1000;-80
2022/10/29 05:10:10;;;;;;;;;;;;;;;21.54;31.92;98947.91;5066664;28;1910;-80
2022/10/29 05:12:36;;;;;;;;;;;;;;;21.64;31.51;98951.84;5059682;28;767;-81
2022/10/29 05:15:01;;;;;;;;;;;;;;;21.35;31.59;98953.38;5058273;28;1311;-80
2022/10/29 05:17:27;;;;;;;;;;;;;;;21.48;31.58;98951.63;5037252;28;930;-80
2022/10/29 05:19:52;;;;;;;;;;;;;;;21.17;31.90;98953.53;5016932;28;1538;-80
2022/10/29 05:22:18;;;;;;;;;;;;;;;21.11;32.03;98961.69;5017432;28;964;-80
2022/10/29 05:24:43;;;;;;;;;;;;;;;21.17;31.79;98954.34;5017654;28;841;-80
2022/10/29 05:27:09;;;;;;;;;;;;;;;20.95;32.34;98965.06;5017515;28;1131;-80
2022/10/29 05:29:34;;;;;;;;;;;;;;;21.08;32.52;98968.16;5006767;28;1914;-80
2022/10/29 05:32:00;;;;;;;;;;;;;;;21.21;32.32;98972.09;5020495;28;836;-80
2022/10/29 05:34:25;;;;;;;;;;;;;;;21.10;32.32;98965.75;5020311;28;1531;-80
2022/10/29 05:36:51;;;;;;;;;;;;;;;21.35;31.61;98964.69;5037055;28;1136;-80
2022/10/29 05:39:16;;;;;;;;;;;;;;;21.36;31.81;98969.16;5036671;28;944;-80
2022/10/29 05:41:41;;;;;;;;;;;;;;;21.24;31.83;98981.75;5020343;28;1242;-80
2022/10/29 05:44:07;;;;;;;;;;;;;;;21.26;31.71;98982.97;5053019;28;1759;-80
2022/10/29 05:46:32;;;;;;;;;;;;;;;21.04;32.26;98987.22;5053279;28;1294;-80
2022/10/29 05:48:58;;;;;;;;;;;;;;;21.19;31.63;98988.72;5037301;28;1253;-80
2022/10/29 05:51:24;;;;;;;;;;;;;;;21.19;31.82;98980.22;5020061;28;1906;-80
2022/10/29 05:53:49;;;;;;;;;;;;;;;21.44;32.39;98982.81;5063343;28;1297;-80
2022/10/29 05:56:15;;;;;;;;;;;;;;;21.44;31.79;98982.81;5053217;28;1360;-80
2022/10/29 05:58:40;;;;;;;;;;;;;;;21.49;31.66;98988.00;5071047;28;1252;-80
2022/10/29 06:01:06;;;;;;;;;;;;;;;21.40;31.63;98986.91;5071028;28;719;-80
2022/10/29 06:03:31;;;;;;;;;;;;;;;21.49;31.33;98987.22;5054085;28;853;-80
2022/10/29 06:05:57;;;;;;;;;;;;;;;21.17;31.86;98996.00;5069747;28;1595;-80
2022/10/29 06:08:22;;;;;;;;;;;;;;;21.22;31.94;98996.34;5056235;28;906;-80
2022/10/29 06:10:48;;;;;;;;;;;;;;;21.28;31.83;98996.69;5039738;28;1977;-80
2022/10/29 06:13:17;;;;;;;;;;;;;;;21.03;32.12;98999.75;5072805;28;870;-81
2022/10/29 06:15:42;;;;;;;;;;;;;;;20.99;32.25;99005.44;5072143;28;1584;-80
2022/10/29 06:18:08;;;;;;;;;;;;;;;21.06;32.34;98993.25;5056178;28;1277;-80
2022/10/29 06:20:34;;;;;;;;;;;;;;;21.38;32.17;99006.34;5055871;28;1197;-80
2022/10/29 06:22:59;;;;;;;;;;;;;;;21.50;32.11;99005.81;5056197;28;1133;-80
2022/10/29 06:25:25;;;;;;;;;;;;;;;21.58;31.76;98998.84;5071019;28;1576;-80
2022/10/29 06:28:00;;;;;;;;;;;;;;;21.22;32.14;99002.00;5072555;28;790;-80
2022/10/29 06:30:26;;;;;;;;;;;;;;;21.23;32.20;99005.63;5039030;28;1898;-80
2022/10/29 06:32:51;;;;;;;;;;;;;;;21.06;32.08;99010.25;5072724;28;771;-80
2022/10/29 06:35:17;;;;;;;;;;;;;;;21.07;32.18;99011.84;5055323;28;1726;-80
2022/10/29 06:37:42;;;;;;;;;;;;;;;21.14;32.45;99006.13;5052995;28;959;-80
2022/10/29 06:40:08;;;;;;;;;;;;;;;21.07;32.36;99006.19;5056846;28;691;-80
2022/10/29 06:42:33;;;;;;;;;;;;;;;21.02;32.47;99012.28;5090470;28;1315;-80
2022/10/29 06:44:59;;;;;;;;;;;;;;;21.13;32.67;99010.16;5060575;28;1351;-80
2022/10/29 06:47:24;;;;;;;;;;;;;;;21.56;32.05;99009.81;5056401;28;1147;-80
2022/10/29 06:49:49;;;;;;;;;;;;;;;21.62;31.69;99010.94;5057814;28;1981;-79
2022/10/29 06:52:15;;;;;;;;;;;;;;;21.14;32.47;99011.78;5090239;28;1133;-80
2022/10/29 06:54:40;;;;;;;;;;;;;;;21.17;32.41;99016.59;5067793;28;1497;-80
2022/10/29 06:57:06;;;;;;;;;;;;;;;21.35;31.97;99015.66;5036729;28;1231;-80
2022/10/29 06:59:31;;;;;;;;;;;;;;;21.43;31.46;99022.88;5052902;28;906;-79
2022/10/29 07:01:56;;;;;;;;;;;;;;;21.22;31.88;99024.66;5036717;28;1432;-80
2022/10/29 07:04:22;;;;;;;;;;;;;;;20.95;32.51;99020.84;5036933;28;1481;-79
2022/10/29 07:06:47;;;;;;;;;;;;;;;21.26;31.80;99025.44;5053207;28;1245;-80
2022/10/29 07:09:13;;;;;;;;;;;;;;;21.09;32.05;99015.06;5036191;28;1906;-80
2022/10/29 07:11:38;;;;;;;;;;;;;;;21.13;32.33;99024.31;5036773;28;767;-80
2022/10/29 07:14:08;;;;;;;;;;;;;;;21.10;31.99;99028.00;5069420;28;808;-80
2022/10/29 07:16:34;;;;;;;;;;;;;;;21.24;32.90;99027.88;5053124;28;1327;-79
2022/10/29 07:18:59;;;;;;;;;;;;;;;21.58;32.10;99025.13;5069647;28;1260;-80
2022/10/29 07:21:25;;;;;;;;;;;;;;;21.25;32.40;99023.81;5036398;28;807;-79
2022/10/29 07:23:51;;;;;;;;;;;;;;;21.23;32.67;99019.78;5048235;28;1465;-79
2022/10/29 07:26:16;;;;;;;;;;;;;;;21.06;32.55;99022.34;5057154;28;719;-80
2022/10/29 07:28:41;;;;;;;;;;;;;;;21.13;32.56;99026.34;5056826;28;770;-80
2022/10/29 07:31:07;;;;;;;;;;;;;;;21.21;32.28;99028.72;5056014;28;1986;-80
2022/10/29 07:33:32;;;;;;;;;;;;;;;21.18;31.90;99023.88;5055441;28;1561;-80
2022/10/29 07:35:58;;;;;;;;;;;;;;;21.00;32.67;99028.88;5055762;28;766;-80
2022/10/29 07:38:24;;;;;;;;;;;;;;;21.27;32.74;99027.03;5057064;28;707;-80
2022/10/29 07:40:49;;;;;;;;;;;;;;;21.44;32.53;99019.63;5056999;28;759;-80
2022/10/29 07:43:15;;;;;;;;;;;;;;;21.46;32.44;99013.56;5031583;28;1503;-79
2022/10/29 07:45:44;;;;;;;;;;;;;;;21.50;31.90;99017.97;5052352;28;811;-79
2022/10/29 07:48:09;;;;;;;;;;;;;;;21.30;32.18;99003.59;5035415;28;1229;-79
2022/10/29 07:50:35;;;;;;;;;;;;;;;21.27;32.26;99015.72;5035782;28;1906;-80
2022/10/29 07:53:01;;;;;;;;;;;;;;;21.17;32.50;99010.94;5052158;28;1346;-80
2022/10/29 07:55:26;;;;;;;;;;;;;;;21.35;31.95;99004.34;5036747;28;699;-79
2022/10/29 07:58:02;;;;;;;;;;;;;;;21.23;31.95;99012.09;5068985;28;1030;-80
2022/10/29 08:00:28;;;;;;;;;;;;;;;21.24;31.97;99005.25;5068767;28;1114;-80
2022/10/29 08:02:53;;;;;;;;;;;;;;;20.88;32.53;99023.72;5069073;28;1512;-79
2022/10/29 08:05:19;;;;;;;;;;;;;;;20.96;32.48;99016.78;5035683;28;1139;-80
2022/10/29 08:07:45;;;;;;;;;;;;;;;20.95;32.59;99015.97;5035734;28;822;-80
2022/10/29 08:10:10;;;;;;;;;;;;;;;20.97;32.59;99019.19;5035646;28;1914;-79
2022/10/29 08:12:35;;;;;;;;;;;;;;;21.08;32.34;99019.09;5034976;28;1546;-80
2022/10/29 08:15:01;;;;;;;;;;;;;;;21.10;32.33;99021.53;5036339;28;846;-80
2022/10/29 08:17:29;;;;;;;;;;;;;;;21.05;32.39;99019.94;5036666;28;716;-80
2022/10/29 08:19:55;;;;;;;;;;;;;;;21.22;32.83;99026.69;5037534;28;871;-80
2022/10/29 08:22:20;;;;;;;;;;;;;;;21.49;32.27;99019.16;5040210;28;1553;-80
2022/10/29 08:24:46;;;;;;;;;;;;;;;21.17;32.57;99016.59;5044744;28;1534;-80
2022/10/29 08:27:11;;;;;;;;;;;;;;;21.08;32.89;99013.44;5077118;28;1792;-79
2022/10/29 08:29:37;;;;;;;;;;;;;;;21.00;32.73;99011.91;5042662;28;1906;-80
2022/10/29 08:32:02;;;;;;;;;;;;;;;21.01;32.77;99005.81;5038976;28;1495;-80
2022/10/29 08:34:28;;;;;;;;;;;;;;;21.07;32.61;99000.53;5045034;28;1889;-80
2022/10/29 08:36:53;;;;;;;;;;;;;;;21.24;32.55;99004.41;5075473;28;2089;-80
2022/10/29 08:39:18;;;;;;;;;;;;;;;21.33;32.78;99002.72;5061512;28;1290;-80
2022/10/29 08:41:47;;;;;;;;;;;;;;;21.46;32.22;98999.41;5044839;28;1253;-80
2022/10/29 08:44:21;;;;;;;;;;;;;;;21.35;32.29;99004.34;5061229;28;830;-80
2022/10/29 08:46:46;;;;;;;;;;;;;;;21.20;32.43;99004.47;5043820;28;1907;-80
2022/10/29 08:49:14;;;;;;;;;;;;;;;21.17;32.31;98998.81;5077834;28;1972;-79
2022/10/29 08:51:41;;;;;;;;;;;;;;;21.12;32.67;98991.59;5042704;28;2010;-80
2022/10/29 08:54:10;;;;;;;;;;;;;;;21.19;32.26;99000.03;5061034;28;1263;-80
2022/10/29 08:56:36;;;;;;;;;;;;;;;21.27;32.18;99004.38;5036692;28;1779;-80
2022/10/29 08:59:10;;;;;;;;;;;;;;;20.98;32.50;98997.34;5057503;28;829;-80
2022/10/29 09:01:36;;;;;;;;;;;;;;;21.14;32.30;98994.81;5061522;28;926;-79
2022/10/29 09:04:02;;;;;;;;;;;;;;;20.98;32.52;98980.38;5008188;28;1976;-80
2022/10/29 09:06:30;;;;;;;;;;;;;;;21.06;32.82;98984.78;5024421;28;799;-80
2022/10/29 09:09:02;;;;;;;;;;;;;;;21.47;32.60;98981.19;5022279;28;1182;-80
2022/10/29 09:11:30;;;;;;;;;;;;;;;21.54;32.40;98986.75;5071498;28;1975;-80
2022/10/29 09:14:16;;;;;;;;;;;;;;;21.31;32.51;98979.72;5039625;28;826;-80
2022/10/29 09:16:42;;;;;;;;;;;;;;;21.37;32.40;98982.88;5038479;28;920;-80
2022/10/29 09:19:27;;;;;;;;;;;;;;;21.20;32.62;98973.31;5039582;28;731;-79
2022/10/29 09:22:11;;;;;;;;;;;;;;;21.05;32.81;98964.16;5038156;28;1935;-79
2022/10/29 09:24:39;;;;;;;;;;;;;;;21.06;32.71;98970.63;5038213;28;890;-79
2022/10/29 09:27:07;;;;;;;;;;;;;;;21.14;32.32;98971.34;5038685;28;1379;-79
2022/10/29 09:29:44;;;;;;;;;;;;;;;21.14;32.44;98960.84;5038340;28;1910;-79
2022/10/29 09:32:15;;;;;;;;;;;;;;;21.14;32.33;98968.50;5042156;28;1884;-79
2022/10/29 09:34:45;;;;;;;;;;;;;;;21.42;32.87;98959.78;5053917;28;1142;-79
2022/10/29 09:37:14;;;;;;;;;;;;;;;21.55;32.43;98963.69;5053578;28;853;-79
2022/10/29 09:39:40;;;;;;;;;;;;;;;21.42;32.78;98958.97;5053890;28;779;-79
2022/10/29 09:42:10;;;;;;;;;;;;;;;21.36;32.79;98960.66;5052390;28;1899;-80
2022/10/29 09:44:55;;;;;;;;;;;;;;;21.13;32.81;98966.91;5053737;28;787;-80
2022/10/29 09:47:39;;;;;;;;;;;;;;;21.10;32.89;98965.75;4996821;28;1052;-80
2022/10/29 09:50:17;;;;;;;;;;;;;;;21.18;32.57;98960.81;4997570;28;1918;-80
2022/10/29 09:52:42;;;;;;;;;;;;;;;21.23;32.42;98954.69;4980703;28;1941;-80
2022/10/29 09:55:10;;;;;;;;;;;;;;;21.16;32.43;98946.28;5013838;28;1203;-80
2022/10/29 09:57:35;;;;;;;;;;;;;;;21.16;32.53;98947.06;5013695;28;1278;-80
2022/10/29 10:00:03;;;;;;;;;;;;;;;21.17;32.50;98945.06;4997339;28;779;-80
2022/10/29 10:02:38;;;;;;;;;;;;;;;21.11;32.51;98944.69;4982522;28;1913;-80
2022/10/29 10:05:07;;;;;;;;;;;;;;;21.19;32.51;98951.09;4997385;28;1163;-80
2022/10/29 10:07:32;;;;;;;;;;;;;;;21.14;32.45;98938.22;4997295;28;1095;-80
2022/10/29 10:09:58;;;;;;;;;;;;;;;21.42;33.17;98939.16;4997197;28;1973;-80
2022/10/29 10:12:25;;;;;;;;;;;;;;;21.27;33.17;98935.66;5004867;28;1866;-80
2022/10/29 10:15:19;;;;;;;;;;;;;;;21.35;32.88;98925.91;4996958;28;842;-79
2022/10/29 10:17:58;;;;;;;;;;;;;;;21.37;32.77;98922.63;4982290;28;1060;-80
2022/10/29 10:20:28;;;;;;;;;;;;;;;21.08;33.13;98915.19;4997151;28;1116;-79
2022/10/29 10:22:53;;;;;;;;;;;;;;;21.04;33.03;98916.50;5008508;28;1362;-80
2022/10/29 10:25:31;;;;;;;;;;;;;;;21.10;32.99;98917.63;4996765;28;1118;-80
2022/10/29 10:27:56;;;;;;;;;;;;;;;21.11;32.69;98905.09;5013080;28;1202;-79
2022/10/29 10:30:23;;;;;;;;;;;;;;;21.05;32.76;98901.91;4993244;28;1981;-80
2022/10/29 10:32:48;;;;;;;;;;;;;;;21.03;32.92;98903.53;4990910;28;1961;-80
2022/10/29 10:35:26;;;;;;;;;;;;;;;21.16;32.78;98901.78;4993154;28;974;-79
2022/10/29 10:37:52;;;;;;;;;;;;;;;21.05;32.70;98899.09;4977199;28;1265;-80
2022/10/29 10:40:21;;;;;;;;;;;;;;;21.08;32.34;98900.25;4977079;28;1092;-80
2022/10/29 10:42:47;;;;;;;;;;;;;;;21.41;33.16;98895.09;4970058;28;1907;-80
2022/10/29 10:45:16;;;;;;;;;;;;;;;21.50;33.05;98892.53;4996623;28;852;-80
2022/10/29 10:47:46;;;;;;;;;;;;;;;21.19;33.02;98886.81;4980239;28;1196;-79
2022/10/29 10:50:12;;;;;;;;;;;;;;;21.29;32.90;98877.38;4944234;28;1915;-80
2022/10/29 10:52:37;;;;;;;;;;;;;;;21.16;32.85;98884.81;4959804;28;1917;-80
2022/10/29 10:55:29;;;;;;;;;;;;;;;21.37;32.55;98880.16;4942878;28;1229;-79
2022/10/29 10:57:55;;;;;;;;;;;;;;;20.92;33.03;98869.69;4960483;28;1137;-80
2022/10/29 11:00:20;;;;;;;;;;;;;;;20.94;33.21;98883.44;4976711;28;1142;-80
2022/10/29 11:02:56;;;;;;;;;;;;;;;21.18;32.69;98871.03;4992388;28;1762;-79
2022/10/29 11:05:27;;;;;;;;;;;;;;;21.09;32.66;98856.59;4960756;28;956;-80
2022/10/29 11:08:07;;;;;;;;;;;;;;;21.26;32.51;98861.25;4995758;28;890;-80
2022/10/29 11:10:38;;;;;;;;;;;;;;;21.35;32.30;98855.13;4995678;28;1902;-79
2022/10/29 11:13:05;;;;;;;;;;;;;;;21.59;33.11;98856.03;5011510;28;1999;-80
2022/10/29 11:15:36;;;;;;;;;;;;;;;21.64;32.49;98852.72;4998987;28;1108;-80
2022/10/29 11:18:15;;;;;;;;;;;;;;;21.37;32.83;98844.16;5015549;28;785;-80
2022/10/29 11:20:43;;;;;;;;;;;;;;;21.23;33.17;98853.59;5018370;28;917;-79
2022/10/29 11:23:27;;;;;;;;;;;;;;;21.09;32.96;98848.13;5050120;28;1922;-80
2022/10/29 11:26:12;;;;;;;;;;;;;;;21.16;32.87;98850.84;4995746;28;1186;-80
2022/10/29 11:28:39;;;;;;;;;;;;;;;21.07;33.08;98842.06;4995251;28;1322;-80
2022/10/29 11:31:09;;;;;;;;;;;;;;;21.09;32.61;98839.63;4996006;28;1898;-80
2022/10/29 11:33:39;;;;;;;;;;;;;;;21.18;32.50;98839.91;4996647;28;2095;-79
2022/10/29 11:36:21;;;;;;;;;;;;;;;21.21;32.49;98824.91;4982950;28;859;-80
2022/10/29 11:39:05;;;;;;;;;;;;;;;20.95;33.16;98822.81;5014854;28;931;-80
2022/10/29 11:41:30;;;;;;;;;;;;;;;21.06;32.62;98824.28;4979422;28;1913;-80
2022/10/29 11:43:56;;;;;;;;;;;;;;;21.19;32.22;98816.06;4979136;28;866;-79
2022/10/29 11:46:21;;;;;;;;;;;;;;;21.01;32.55;98816.25;4961291;28;988;-79
2022/10/29 11:48:55;;;;;;;;;;;;;;;21.18;32.26;98820.09;4975749;28;1263;-80
2022/10/29 11:51:26;;;;;;;;;;;;;;;20.99;32.43;98812.25;4976197;28;1898;-80
2022/10/29 11:53:54;;;;;;;;;;;;;;;21.32;32.94;98819.97;5047797;28;1940;-80
2022/10/29 11:56:37;;;;;;;;;;;;;;;21.53;33.03;98818.06;5021263;28;1138;-80
2022/10/29 11:59:03;;;;;;;;;;;;;;;21.58;32.86;98809.91;5040452;28;802;-79
2022/10/29 12:01:55;;;;;;;;;;;;;;;21.24;33.11;98811.94;5054780;28;1885;-80
2022/10/29 12:04:20;;;;;;;;;;;;;;;21.35;32.92;98800.50;5042728;28;2001;-80
2022/10/29 12:06:53;;;;;;;;;;;;;;;21.43;32.50;98807.69;5014765;28;916;-79
2022/10/29 12:09:37;;;;;;;;;;;;;;;21.27;32.71;98799.78;5014200;28;1981;-79
2022/10/29 12:12:16;;;;;;;;;;;;;;;21.20;32.89;98800.69;5030671;28;1826;-79
2022/10/29 12:14:52;;;;;;;;;;;;;;;21.27;32.33;98783.59;5030752;28;884;-80
2022/10/29 12:17:20;;;;;;;;;;;;;;;21.30;32.39;98782.00;5014663;28;1261;-80
2022/10/29 12:19:49;;;;;;;;;;;;;;;21.18;32.59;98780.47;5030904;28;738;-80
2022/10/29 12:22:20;;;;;;;;;;;;;;;21.22;32.33;98781.22;5021286;28;1958;-80
2022/10/29 12:25:08;;;;;;;;;;;;;;;21.01;33.04;98775.84;5001242;28;1904;-79
2022/10/29 12:27:46;;;;;;;;;;;;;;;21.11;32.68;98777.75;5017685;28;1010;-80
2022/10/29 12:30:12;;;;;;;;;;;;;;;21.07;32.53;98774.16;5034176;28;1977;-80
2022/10/29 12:32:44;;;;;;;;;;;;;;;21.00;32.71;98774.25;5033716;28;1970;-80
2022/10/29 12:35:14;;;;;;;;;;;;;;;21.14;32.21;98765.59;5017175;28;1879;-80
2022/10/29 12:38:03;;;;;;;;;;;;;;;21.17;32.35;98769.59;5017774;28;1103;-80
2022/10/29 12:40:29;;;;;;;;;;;;;;;21.31;33.14;98775.91;5034002;28;972;-80
2022/10/29 12:42:55;;;;;;;;;;;;;;;21.50;33.43;98762.28;5004908;28;1981;-80
2022/10/29 12:45:40;;;;;;;;;;;;;;;21.56;33.16;98766.28;5014673;28;1258;-80
2022/10/29 12:48:10;;;;;;;;;;;;;;;21.25;33.34;98769.06;5014219;28;1212;-79
2022/10/29 12:50:53;;;;;;;;;;;;;;;21.21;33.12;98773.97;4955934;29;1987;-80
2022/10/29 12:53:28;;;;;;;;;;;;;;;21.01;33.39;98758.88;4954171;28;1907;-79
2022/10/29 12:55:53;;;;;;;;;;;;;;;21.13;33.19;98761.13;4975235;28;1158;-80
2022/10/29 12:58:37;;;;;;;;;;;;;;;21.13;33.12;98755.47;4959230;28;1299;-80
2022/10/29 13:01:03;;;;;;;;;;;;;;;21.01;33.05;98758.88;4975516;28;974;-80
2022/10/29 13:03:47;;;;;;;;;;;;;;;21.07;32.77;98743.03;4959125;28;1799;-79
2022/10/29 13:06:30;;;;;;;;;;;;;;;21.30;32.18;98748.81;4941512;29;1133;-79
2022/10/29 13:08:56;;;;;;;;;;;;;;;21.18;32.48;98752.16;4943529;29;1185;-80
2022/10/29 13:11:23;;;;;;;;;;;;;;;21.05;32.70;98740.63;4943185;29;1989;-80
2022/10/29 13:13:50;;;;;;;;;;;;;;;21.26;33.40;98736.72;4959250;28;2049;-80
2022/10/29 13:16:17;;;;;;;;;;;;;;;21.32;33.72;98742.72;4959360;28;824;-79
2022/10/29 13:18:50;;;;;;;;;;;;;;;21.42;33.12;98743.81;4943519;29;918;-79